โซล, ประเทศเกาหลีใต้

05:15 PM KST วัน กรกฎาคม 28, 2014 (GMT +0900)
IGYEONGG3 Elev 115 ft | 37.53 °N, 126.83 °E | Change Station

Current weather conditions updated 7 minutes ago

Haze
เมฆหมอก
85.9 ฟาเรนไฮน์
Feels Like 95 ฟาเรนไฮน์
N
2.0
ลม ความผันแปร ลม from ทางทิศตะวันตกและทิศตะวันตกเฉียงเหนือ
Gusts 9.0 mph

Tomorrow is forecast to be Cooler than today. มีฝนโปรยต่อในตอนกลางคืน tomorrow night.

วันนี้
High -- | Low -- ฟาเรนไฮน์
--% Chance of Precip.
Yesterday
High -- | Low -- ฟาเรนไฮน์
Precip. -- นิ้ว
5:32 AM 7:44 PM
พระจันทร์ใหม่, 2% visible
ความดัน 29.74 นิ้ว
ทัศนวิสัย 1.7 ไมล์
เมฆ Few 2500 ft
มีเมฆคลุมเป็นส่วนใหญ่ 20000 ft
ดัชนีความร้อน 95 ฟาเรนไฮน์
อุณหภูมิที่อากาศอาจจับตัวเป็นหยาดน้ำค้าง 76 ฟาเรนไฮน์
ความชื้น 71%
Rainfall 0.00 นิ้ว
Snow Depth Not available.
UV 0.5 out of 12
Pollen Not available.
Air Quality Not available.
Flu Activity Not available.
METAR RKSS 280800Z 28007KT 2800 HZ FEW025 BKN200 28/19 Q1007 NOSIG

More Conditions Fewer Conditions

ความดัน 29.74 นิ้ว
ทัศนวิสัย 1.7 ไมล์
เมฆ Few 2500 ft
มีเมฆคลุมเป็นส่วนใหญ่ 20000 ft
ดัชนีความร้อน 95 ฟาเรนไฮน์
อุณหภูมิที่อากาศอาจจับตัวเป็นหยาดน้ำค้าง 76 ฟาเรนไฮน์
ความชื้น 71%
Rainfall 0.00 นิ้ว
Snow Depth Not available.
UV 0.5 out of 12
Pollen Not available.
Air Quality Not available.
Flu Activity Not available.
METAR RKSS 280800Z 28007KT 2800 HZ FEW025 BKN200 28/19 Q1007 NOSIG

More Conditions Fewer Conditions

10-Day Weather Forecast

Almanac

ดาราศาสตร์

Jul. 28, 2014 Rise Set
Actual Time 5:32 AM KST 7:44 PM KST
Civil Twilight 5:03 AM KST 8:13 PM KST
Nautical Twilight 4:27 AM KST 8:49 PM KST
Astronomical Twilight 3:48 AM KST 9:28 PM KST
Moon 6:38 AM KST 8:10 PM KST
Length Of Visible Light 15h 10m
ความยาวของวัน
14h 11m
Tomorrow will be 1m 41s shorter.
พระจันทร์ใหม่, 2% of the Moon is Illuminated
วันนี้
พระจันทร์ใหม่
Aug 3
ไตรมาสแรก
Aug 10
พระจันทร์เต็มดวง
Aug 17
ไตรมาสล่าสุด
Aug 25
New

Yesterday's Extremes

Country Highs Country Lows

Community

WunderPhotos

Upload Photos

1,738,293 photos uploaded!

Nearby

Snow Depth

Not available.

Earthquake Activity

City Distance Mag. Time & Date
No recent earthquake activity has been reported nearby.
Minimum magnitude displayed is 2.5.

Coastal Water Temperatures

สถานที่ อุณหภูมิ
No Stations Reporting

Nearby Weather Stations

Station Location Temp ดัชนีความร้อน อุณหภูมิที่อากาศอาจจับตัวเป็นหยาดน้ำค้าง ความชื้น ลม Precip. Elev ปรับปรุงล่าสุด Type
Bucheon3 85.9 ฟาเรนไฮน์ 95 ฟาเรนไฮน์ 76 ฟาเรนไฮน์ 71% ทางทิศตะวันตกและทิศตะวันตกเฉียงเหนือ  ความเร็วที่  2.0 mph 0.00 นิ้ว / hr 115 ft 5:08 PM KST Normal
Yongin-Si 85.5 ฟาเรนไฮน์ 96 ฟาเรนไฮน์ 77 ฟาเรนไฮน์ 75% ทางทิศตะวันตกและทิศตะวันตกเฉียงใต้  ความเร็วที่  4.0 mph 0.00 นิ้ว / hr 312 ft 5:09 PM KST Normal

Show More Stations Show Fewer Stations